createdAt,value
2023-05-22T00:00:47.243Z,15.85
2023-05-22T00:03:13.618Z,15.07
2023-05-22T00:05:41.251Z,16.35
2023-05-22T00:08:13.384Z,16.45
2023-05-22T00:10:40.189Z,15.38
2023-05-22T00:13:06.765Z,16.08
2023-05-22T00:15:33.686Z,15.23
2023-05-22T00:18:00.282Z,16.40
2023-05-22T00:20:27.161Z,16.40
2023-05-22T00:22:54.411Z,16.38
2023-05-22T00:25:20.771Z,15.80
2023-05-22T00:27:47.661Z,16.80
2023-05-22T00:30:14.061Z,16.48
2023-05-22T00:32:40.557Z,17.73
2023-05-22T00:35:07.704Z,17.38
2023-05-22T00:37:34.053Z,16.88
2023-05-22T00:40:00.455Z,17.88
2023-05-22T00:42:26.981Z,17.13
2023-05-22T00:44:53.439Z,16.30
2023-05-22T00:47:19.794Z,17.38
2023-05-22T00:49:46.507Z,18.10
2023-05-22T00:52:14.404Z,17.40
2023-05-22T00:54:41.144Z,18.52
2023-05-22T00:57:07.562Z,18.65
2023-05-22T00:59:34.211Z,18.02
2023-05-22T01:02:01.524Z,18.35
2023-05-22T01:04:28.651Z,18.00
2023-05-22T01:06:55.188Z,18.35
2023-05-22T01:09:21.656Z,17.95
2023-05-22T01:12:00.374Z,18.15
2023-05-22T01:14:56.782Z,17.38
2023-05-22T01:17:37.296Z,17.23
2023-05-22T01:20:17.217Z,18.40
2023-05-22T01:23:31.836Z,17.90
2023-05-22T01:26:22.321Z,18.00
2023-05-22T01:29:07.354Z,17.90
2023-05-22T01:31:39.006Z,17.58
2023-05-22T01:34:10.301Z,18.23
2023-05-22T01:36:38.077Z,18.75
2023-05-22T01:39:06.488Z,18.88
2023-05-22T01:41:34.057Z,18.75
2023-05-22T01:44:01.546Z,17.98
2023-05-22T01:46:29.253Z,17.63
2023-05-22T01:48:56.116Z,18.65
2023-05-22T01:51:31.652Z,18.50
2023-05-22T01:54:10.953Z,18.30
2023-05-22T01:56:45.673Z,19.08
2023-05-22T01:59:21.178Z,19.48
2023-05-22T02:01:50.623Z,17.92
2023-05-22T02:04:22.675Z,17.40
2023-05-22T02:06:52.052Z,19.13
2023-05-22T02:09:19.467Z,18.95
2023-05-22T02:11:47.873Z,18.85
2023-05-22T02:14:15.999Z,19.88
2023-05-22T02:16:42.425Z,18.15
2023-05-22T02:19:08.839Z,18.25
2023-05-22T02:21:36.019Z,18.40
2023-05-22T02:24:02.818Z,18.30
2023-05-22T02:26:29.347Z,17.90
2023-05-22T02:28:55.790Z,19.15
2023-05-22T02:31:22.254Z,19.42
2023-05-22T02:33:48.876Z,18.30
2023-05-22T02:36:15.245Z,19.00
2023-05-22T02:38:41.658Z,18.25
2023-05-22T02:41:08.237Z,18.88
2023-05-22T02:43:34.622Z,19.02
2023-05-22T02:46:01.132Z,19.63
2023-05-22T02:48:29.157Z,20.70
2023-05-22T02:50:55.512Z,19.65
2023-05-22T02:53:21.866Z,19.70
2023-05-22T02:55:48.390Z,19.92
2023-05-22T02:58:14.911Z,19.67
2023-05-22T03:00:41.452Z,18.45
2023-05-22T03:03:08.228Z,17.83
2023-05-22T03:05:34.638Z,19.92
2023-05-22T03:08:01.403Z,21.05
2023-05-22T03:10:27.902Z,19.63
2023-05-22T03:12:54.340Z,19.30
2023-05-22T03:15:20.756Z,20.65
2023-05-22T03:17:47.229Z,20.45
2023-05-22T03:20:16.991Z,20.42
2023-05-22T03:22:44.395Z,18.13
2023-05-22T03:25:10.930Z,18.58
2023-05-22T03:27:39.893Z,18.67
2023-05-22T03:30:07.170Z,17.90
2023-05-22T03:32:37.339Z,18.02
2023-05-22T03:35:05.192Z,18.35
2023-05-22T03:37:31.662Z,20.10
2023-05-22T03:39:58.042Z,18.80
2023-05-22T03:42:24.462Z,19.65
2023-05-22T03:44:50.889Z,19.48
2023-05-22T03:47:17.248Z,19.25
2023-05-22T03:49:43.604Z,18.27
2023-05-22T03:52:10.349Z,19.48
2023-05-22T03:54:36.766Z,18.90
2023-05-22T03:57:03.270Z,17.50
2023-05-22T03:59:29.605Z,17.30
2023-05-22T04:01:57.891Z,17.95
2023-05-22T04:04:27.115Z,18.00
2023-05-22T04:06:53.491Z,20.20
2023-05-22T04:09:19.838Z,20.27
2023-05-22T04:11:48.519Z,19.70
2023-05-22T04:14:14.876Z,21.35
2023-05-22T04:16:41.237Z,21.38
2023-05-22T04:19:09.368Z,19.33
2023-05-22T04:21:35.967Z,19.65
2023-05-22T04:24:06.845Z,20.95
2023-05-22T04:26:33.842Z,21.05
2023-05-22T04:29:00.240Z,20.80
2023-05-22T04:31:26.651Z,19.40
2023-05-22T04:33:54.458Z,20.40
2023-05-22T04:36:22.294Z,18.10
2023-05-22T04:38:50.172Z,17.98
2023-05-22T04:41:17.890Z,17.13
2023-05-22T04:43:44.836Z,16.00
2023-05-22T04:46:11.232Z,18.23
2023-05-22T04:48:37.652Z,16.33
2023-05-22T04:51:04.607Z,16.35
2023-05-22T04:53:30.972Z,17.15
2023-05-22T04:55:57.381Z,16.52
2023-05-22T04:58:23.756Z,16.35
2023-05-22T05:00:52.424Z,16.38
2023-05-22T05:03:19.807Z,16.38
2023-05-22T05:05:47.556Z,15.27
2023-05-22T05:08:13.931Z,16.83
2023-05-22T05:10:40.531Z,16.02
2023-05-22T05:13:07.039Z,16.83
2023-05-22T05:15:33.406Z,17.35
2023-05-22T05:17:59.857Z,18.15
2023-05-22T05:20:27.418Z,16.52
2023-05-22T05:22:53.788Z,16.55
2023-05-22T05:25:20.316Z,16.48
2023-05-22T05:27:46.659Z,17.33
2023-05-22T05:30:13.298Z,17.50
2023-05-22T05:32:39.748Z,16.55
2023-05-22T05:35:06.379Z,17.55
2023-05-22T05:37:32.794Z,17.27
2023-05-22T05:39:59.288Z,16.55
2023-05-22T05:42:25.814Z,17.73
2023-05-22T05:44:52.190Z,18.23
2023-05-22T05:47:18.731Z,17.40
2023-05-22T05:49:45.232Z,16.88
2023-05-22T05:52:11.639Z,15.85
2023-05-22T05:54:38.058Z,17.10
2023-05-22T05:57:04.546Z,15.70
2023-05-22T05:59:31.853Z,16.80
2023-05-22T06:01:58.220Z,17.85
2023-05-22T06:04:24.547Z,17.92
2023-05-22T06:06:51.678Z,18.08
2023-05-22T06:09:18.051Z,17.17
2023-05-22T06:11:44.399Z,17.70
2023-05-22T06:14:10.936Z,17.10
2023-05-22T06:16:37.397Z,18.95
2023-05-22T06:19:04.621Z,18.33
2023-05-22T06:21:31.064Z,17.15
2023-05-22T06:23:57.460Z,16.63
2023-05-22T06:26:25.814Z,16.27
2023-05-22T06:28:52.220Z,18.25
2023-05-22T06:31:18.727Z,14.18
2023-05-22T06:33:45.194Z,16.95
2023-05-22T06:36:11.748Z,16.77
2023-05-22T06:38:39.054Z,16.45
2023-05-22T06:41:06.058Z,16.35
2023-05-22T06:43:33.062Z,15.55
2023-05-22T06:45:59.488Z,15.70
2023-05-22T06:48:26.240Z,15.90
2023-05-22T06:50:52.621Z,15.55
2023-05-22T06:53:18.999Z,15.75
2023-05-22T06:55:45.421Z,15.05
2023-05-22T06:58:11.790Z,16.40
2023-05-22T07:00:38.521Z,16.95
2023-05-22T07:03:06.763Z,17.90
2023-05-22T07:05:33.394Z,12.30
2023-05-22T07:07:59.858Z,16.50
2023-05-22T07:10:27.503Z,15.85
2023-05-22T07:12:54.346Z,17.85
2023-05-22T07:15:20.901Z,16.70
2023-05-22T07:17:47.317Z,17.20
2023-05-22T07:20:15.724Z,16.88
2023-05-22T07:22:42.101Z,16.70
2023-05-22T07:25:08.978Z,16.67
2023-05-22T07:27:35.470Z,17.30
2023-05-22T07:30:01.890Z,16.80
2023-05-22T07:32:28.307Z,17.92
2023-05-22T07:34:54.718Z,17.08
2023-05-22T07:37:22.097Z,16.35
2023-05-22T07:39:48.432Z,16.65
2023-05-22T07:42:14.993Z,16.30
2023-05-22T07:44:41.466Z,17.00
2023-05-22T07:47:08.854Z,19.70
2023-05-22T07:49:35.526Z,20.13
2023-05-22T07:52:01.901Z,23.25
2023-05-22T07:54:28.341Z,23.42
2023-05-22T07:56:55.933Z,25.08
2023-05-22T07:59:23.574Z,23.27
2023-05-22T08:01:50.124Z,22.95
2023-05-22T08:04:16.921Z,23.33
2023-05-22T08:06:44.309Z,25.25
2023-05-22T08:09:10.734Z,22.75
2023-05-22T08:11:39.918Z,20.65
2023-05-22T08:14:06.478Z,22.33
2023-05-22T08:16:32.944Z,23.15
2023-05-22T08:18:59.419Z,18.98
2023-05-22T08:21:25.847Z,20.95
2023-05-22T08:23:52.234Z,18.50
2023-05-22T08:26:18.582Z,18.92
2023-05-22T08:28:44.943Z,19.83
2023-05-22T08:31:12.010Z,21.15
2023-05-22T08:33:39.654Z,20.63
2023-05-22T08:36:06.400Z,19.65
2023-05-22T08:38:32.927Z,17.88
2023-05-22T08:40:59.928Z,18.17
2023-05-22T08:43:28.407Z,17.23
2023-05-22T08:46:05.920Z,17.10
2023-05-22T08:48:33.114Z,15.45
2023-05-22T08:51:04.081Z,16.48
2023-05-22T08:53:38.700Z,16.13
2023-05-22T08:56:06.780Z,17.60
2023-05-22T08:58:37.981Z,16.73
2023-05-22T09:01:05.864Z,17.55
2023-05-22T09:03:32.678Z,15.95
2023-05-22T09:05:59.636Z,17.42
2023-05-22T09:08:27.038Z,15.73
2023-05-22T09:10:54.994Z,15.63
2023-05-22T09:13:30.158Z,14.73
2023-05-22T09:16:09.560Z,14.30
2023-05-22T09:18:39.776Z,15.88
2023-05-22T09:21:17.689Z,15.07
2023-05-22T09:23:53.860Z,15.23
2023-05-22T09:26:20.938Z,16.95
2023-05-22T09:28:47.303Z,15.70
2023-05-22T09:31:13.698Z,15.80
2023-05-22T09:33:43.959Z,14.10
2023-05-22T09:36:10.903Z,12.52
2023-05-22T09:38:37.500Z,13.18
2023-05-22T09:41:03.892Z,12.00
2023-05-22T09:43:30.291Z,13.00
2023-05-22T09:46:00.320Z,12.52
2023-05-22T09:48:26.830Z,12.57
2023-05-22T09:50:59.593Z,12.50
2023-05-22T09:53:28.602Z,11.98
2023-05-22T09:55:58.015Z,10.57
2023-05-22T09:58:27.066Z,10.80
2023-05-22T10:00:56.073Z,10.95
2023-05-22T10:03:24.258Z,11.80
2023-05-22T10:05:53.930Z,11.90
2023-05-22T10:08:44.351Z,11.55
2023-05-22T10:11:11.421Z,11.98
2023-05-22T10:13:38.291Z,8.60
2023-05-22T10:16:05.092Z,11.13
2023-05-22T10:18:31.801Z,10.80
2023-05-22T10:20:59.592Z,10.10
2023-05-22T10:23:26.754Z,10.85
2023-05-22T10:25:54.088Z,11.20
2023-05-22T10:28:25.987Z,11.50
2023-05-22T10:31:36.002Z,9.85
2023-05-22T10:34:07.174Z,10.60
2023-05-22T10:36:36.843Z,10.27
2023-05-22T10:39:34.936Z,10.57
2023-05-22T10:42:01.575Z,11.05
2023-05-22T10:44:28.046Z,8.70
2023-05-22T10:46:54.437Z,8.73
2023-05-22T10:49:23.885Z,10.93
2023-05-22T10:51:56.385Z,12.27
2023-05-22T10:54:45.242Z,8.43
2023-05-22T10:57:18.731Z,8.20
2023-05-22T10:59:48.206Z,9.18
2023-05-22T11:02:22.561Z,15.52
2023-05-22T11:04:49.368Z,8.95
2023-05-22T11:07:15.912Z,10.25
2023-05-22T11:09:44.008Z,9.43
2023-05-22T11:12:20.434Z,9.48
2023-05-22T11:14:51.600Z,9.02
2023-05-22T11:17:22.404Z,9.57
2023-05-22T11:20:18.625Z,9.30
2023-05-22T11:22:52.004Z,9.30
2023-05-22T11:25:19.803Z,9.43
2023-05-22T11:27:49.575Z,9.63
2023-05-22T11:30:17.149Z,9.38
2023-05-22T11:32:45.340Z,9.90
2023-05-22T11:35:17.028Z,9.77
2023-05-22T11:37:43.852Z,9.85
2023-05-22T11:40:11.719Z,10.30
2023-05-22T11:42:38.365Z,9.90
2023-05-22T11:45:05.548Z,12.25
2023-05-22T11:47:32.210Z,16.17
2023-05-22T11:49:59.799Z,14.85
2023-05-22T11:52:34.222Z,13.77
2023-05-22T11:55:00.997Z,14.20
2023-05-22T11:57:28.259Z,11.32
2023-05-22T11:59:54.731Z,12.52
2023-05-22T12:02:21.129Z,14.02
2023-05-22T12:04:47.568Z,13.77
2023-05-22T12:07:14.233Z,15.13
2023-05-22T12:09:42.028Z,16.33
2023-05-22T12:12:11.517Z,14.35
2023-05-22T12:14:38.220Z,15.68
2023-05-22T12:17:04.989Z,16.02
2023-05-22T12:19:32.478Z,16.90
2023-05-22T12:21:59.327Z,15.85
2023-05-22T12:24:25.841Z,16.40
2023-05-22T12:26:53.739Z,13.68
2023-05-22T12:29:22.549Z,16.88
2023-05-22T12:31:49.065Z,14.82
2023-05-22T12:34:19.797Z,15.02
2023-05-22T12:39:18.294Z,18.27
2023-05-22T12:41:45.985Z,16.23
2023-05-22T12:44:14.985Z,16.88
2023-05-22T12:46:41.790Z,18.50
2023-05-22T12:49:08.300Z,17.80
2023-05-22T12:51:35.125Z,17.73
2023-05-22T12:54:03.000Z,15.27
2023-05-22T12:56:30.650Z,17.27
2023-05-22T12:58:58.133Z,12.00
2023-05-22T13:01:24.751Z,16.13
2023-05-22T13:03:54.053Z,16.55
2023-05-22T13:06:20.750Z,17.60
2023-05-22T13:08:47.205Z,14.18
2023-05-22T13:11:13.662Z,17.13
2023-05-22T13:13:40.076Z,17.13
2023-05-22T13:16:06.532Z,16.27
2023-05-22T13:18:33.030Z,16.42
2023-05-22T13:21:00.137Z,16.90
2023-05-22T13:23:26.569Z,15.60
2023-05-22T13:25:52.989Z,13.93
2023-05-22T13:28:19.604Z,15.00
2023-05-22T13:30:46.103Z,14.48
2023-05-22T13:33:13.461Z,13.23
2023-05-22T13:35:40.070Z,15.70
2023-05-22T13:38:06.773Z,14.23
2023-05-22T13:40:33.182Z,14.75
2023-05-22T13:42:59.637Z,14.95
2023-05-22T13:45:27.515Z,14.30
2023-05-22T13:47:53.962Z,14.40
2023-05-22T13:50:20.370Z,15.23
2023-05-22T13:52:46.864Z,15.55
2023-05-22T13:55:13.285Z,16.98
2023-05-22T13:57:40.749Z,14.52
2023-05-22T14:00:09.316Z,15.40
2023-05-22T14:02:35.869Z,15.02
2023-05-22T14:05:02.413Z,13.90
2023-05-22T14:07:28.823Z,14.15
2023-05-22T14:09:55.141Z,14.70
2023-05-22T14:12:21.612Z,13.55
2023-05-22T14:14:48.063Z,13.25
2023-05-22T14:17:14.441Z,14.27
2023-05-22T14:19:40.816Z,13.73
2023-05-22T14:22:07.169Z,14.25
2023-05-22T14:24:33.591Z,14.25
2023-05-22T14:26:59.969Z,14.43
2023-05-22T14:29:26.382Z,13.50
2023-05-22T14:32:01.178Z,12.32
2023-05-22T14:34:27.556Z,11.60
2023-05-22T14:36:56.421Z,11.35
2023-05-22T14:39:24.560Z,13.05
2023-05-22T14:41:52.111Z,10.77
2023-05-22T14:44:19.355Z,11.27
2023-05-22T14:46:45.953Z,13.00
2023-05-22T14:49:12.340Z,6.82
2023-05-22T14:51:38.733Z,4.70
2023-05-22T14:54:05.865Z,4.95
2023-05-22T14:56:32.271Z,7.90
2023-05-22T14:58:58.633Z,6.53
2023-05-22T15:01:25.044Z,8.15
2023-05-22T15:03:51.472Z,9.25
2023-05-22T15:06:17.830Z,8.27
2023-05-22T15:08:44.180Z,8.07
2023-05-22T15:11:10.710Z,7.25
2023-05-22T15:13:37.056Z,5.57
2023-05-22T15:16:03.647Z,4.43
2023-05-22T15:18:30.041Z,4.35
2023-05-22T15:20:56.533Z,4.88
2023-05-22T15:23:25.239Z,5.38
2023-05-22T15:25:54.923Z,6.25
2023-05-22T15:28:21.544Z,6.03
2023-05-22T15:30:48.068Z,6.15
2023-05-22T15:33:14.907Z,7.00
2023-05-22T15:35:43.361Z,7.18
2023-05-22T15:38:12.421Z,7.50
2023-05-22T15:40:40.527Z,8.00
2023-05-22T15:43:07.094Z,7.18
2023-05-22T15:45:36.237Z,7.45
2023-05-22T15:48:06.459Z,8.23
2023-05-22T15:50:34.401Z,8.43
2023-05-22T15:53:01.352Z,7.80
2023-05-22T15:55:28.348Z,8.05
2023-05-22T15:57:54.713Z,7.82
2023-05-22T16:00:21.402Z,6.72
2023-05-22T16:02:48.748Z,7.53
2023-05-22T16:05:15.562Z,7.20
2023-05-22T16:07:42.628Z,7.35
2023-05-22T16:10:09.382Z,7.57
2023-05-22T16:12:35.874Z,7.68
2023-05-22T16:15:03.818Z,7.85
2023-05-22T16:17:31.605Z,7.78
2023-05-22T16:19:58.094Z,7.30
2023-05-22T16:22:30.367Z,7.40
2023-05-22T16:24:59.761Z,6.78
2023-05-22T16:27:26.164Z,5.28
2023-05-22T16:29:52.519Z,7.65
2023-05-22T16:32:18.854Z,7.85
2023-05-22T16:34:45.270Z,7.75
2023-05-22T16:37:11.620Z,6.88
2023-05-22T16:39:41.172Z,7.05
2023-05-22T16:42:07.596Z,6.75
2023-05-22T16:44:34.000Z,7.13
2023-05-22T16:47:00.484Z,6.80
2023-05-22T16:49:27.045Z,6.15
2023-05-22T16:51:53.403Z,5.88
2023-05-22T16:54:19.799Z,5.15
2023-05-22T16:56:46.175Z,3.90
2023-05-22T16:59:12.789Z,3.88
2023-05-22T17:01:39.489Z,3.83
2023-05-22T17:04:05.934Z,3.40
2023-05-22T17:06:32.368Z,3.15
2023-05-22T17:08:58.735Z,3.72
2023-05-22T17:11:25.983Z,3.55
2023-05-22T17:13:52.646Z,3.60
2023-05-22T17:16:19.200Z,3.40
2023-05-22T17:18:45.594Z,3.70
2023-05-22T17:21:12.041Z,3.30
2023-05-22T17:23:38.760Z,3.17
2023-05-22T17:26:05.261Z,3.20
2023-05-22T17:28:31.948Z,3.20
2023-05-22T17:30:58.363Z,3.20
2023-05-22T17:33:25.265Z,3.15
2023-05-22T17:35:52.061Z,3.03
2023-05-22T17:38:18.429Z,3.10
2023-05-22T17:40:46.228Z,3.00
2023-05-22T17:43:13.481Z,3.42
2023-05-22T17:45:40.032Z,3.00
2023-05-22T17:48:07.332Z,2.55
2023-05-22T17:50:33.779Z,2.70
2023-05-22T17:53:00.196Z,3.00
2023-05-22T17:55:26.563Z,2.50
2023-05-22T17:57:53.039Z,2.63
2023-05-22T18:00:19.664Z,2.92
2023-05-22T18:02:47.522Z,2.50
2023-05-22T18:05:13.966Z,2.70
2023-05-22T18:07:40.475Z,2.80
2023-05-22T18:10:07.282Z,3.08
2023-05-22T18:12:34.493Z,3.30
2023-05-22T18:15:02.454Z,2.95
2023-05-22T18:17:28.880Z,3.28
2023-05-22T18:19:55.459Z,2.40
2023-05-22T18:22:21.854Z,2.67
2023-05-22T18:24:48.322Z,2.80
2023-05-22T18:27:14.768Z,2.90
2023-05-22T18:29:41.161Z,3.00
2023-05-22T18:32:09.381Z,3.25
2023-05-22T18:34:37.475Z,3.15
2023-05-22T18:37:04.397Z,3.40
2023-05-22T18:39:30.842Z,3.42
2023-05-22T18:41:58.354Z,3.25
2023-05-22T18:44:24.747Z,3.40
2023-05-22T18:46:51.281Z,2.92
2023-05-22T18:49:17.699Z,3.35
2023-05-22T18:51:44.547Z,3.30
2023-05-22T18:54:10.914Z,3.17
2023-05-22T18:56:37.332Z,3.00
2023-05-22T18:59:03.681Z,3.20
2023-05-22T19:01:30.710Z,3.20
2023-05-22T19:03:57.088Z,3.08
2023-05-22T19:06:25.797Z,2.92
2023-05-22T19:08:52.500Z,3.47
2023-05-22T19:11:18.883Z,2.97
2023-05-22T19:13:45.379Z,3.65
2023-05-22T19:16:13.564Z,3.15
2023-05-22T19:18:40.050Z,3.40
2023-05-22T19:21:06.448Z,3.33
2023-05-22T19:23:33.063Z,3.40
2023-05-22T19:26:00.521Z,3.75
2023-05-22T19:28:26.901Z,3.58
2023-05-22T19:30:57.186Z,3.60
2023-05-22T19:33:25.617Z,4.32
2023-05-22T19:35:52.831Z,3.80
2023-05-22T19:38:19.610Z,3.40
2023-05-22T19:40:46.270Z,3.72
2023-05-22T19:43:12.773Z,3.90
2023-05-22T19:45:39.137Z,3.92
2023-05-22T19:48:05.607Z,3.90
2023-05-22T19:50:32.257Z,3.47
2023-05-22T19:52:58.779Z,3.30
2023-05-22T19:55:25.669Z,3.25
2023-05-22T19:57:52.029Z,3.38
2023-05-22T20:00:19.281Z,4.07
2023-05-22T20:02:45.909Z,3.95
2023-05-22T20:05:15.268Z,3.20
2023-05-22T20:07:42.540Z,3.88
2023-05-22T20:10:10.157Z,3.40
2023-05-22T20:12:37.237Z,3.63
2023-05-22T20:15:04.297Z,3.83
2023-05-22T20:17:30.697Z,3.58
2023-05-22T20:20:00.307Z,3.53
2023-05-22T20:22:27.337Z,3.70
2023-05-22T20:24:54.152Z,3.63
2023-05-22T20:27:20.895Z,3.60
2023-05-22T20:29:49.806Z,4.00
2023-05-22T20:32:16.873Z,3.70
2023-05-22T20:34:44.984Z,3.50
2023-05-22T20:37:11.425Z,3.78
2023-05-22T20:39:37.799Z,3.60
2023-05-22T20:42:04.494Z,3.40
2023-05-22T20:44:31.626Z,3.70
2023-05-22T20:46:58.178Z,3.95
2023-05-22T20:49:25.045Z,3.40
2023-05-22T20:51:51.501Z,3.50
2023-05-22T20:54:18.236Z,3.33
2023-05-22T20:56:44.651Z,2.85
2023-05-22T20:59:11.383Z,3.95
2023-05-22T21:01:38.004Z,3.78
2023-05-22T21:04:04.394Z,3.45
2023-05-22T21:06:31.514Z,3.22
2023-05-22T21:09:01.475Z,3.50
2023-05-22T21:11:28.094Z,4.13
2023-05-22T21:13:54.533Z,3.90
2023-05-22T21:16:20.978Z,4.18
2023-05-22T21:18:47.362Z,5.53
2023-05-22T21:21:14.559Z,5.18
2023-05-22T21:23:40.927Z,4.70
2023-05-22T21:26:07.358Z,4.38
2023-05-22T21:28:34.088Z,5.25
2023-05-22T21:31:00.651Z,4.72
2023-05-22T21:33:27.139Z,5.00
2023-05-22T21:35:53.489Z,3.88
2023-05-22T21:38:19.823Z,5.40
2023-05-22T21:40:46.254Z,4.20
2023-05-22T21:43:12.609Z,4.63
2023-05-22T21:45:38.977Z,5.10
2023-05-22T21:48:05.530Z,5.13
2023-05-22T21:50:32.008Z,4.75
2023-05-22T21:52:58.354Z,5.43
2023-05-22T21:55:24.717Z,5.60
2023-05-22T21:57:51.085Z,4.55
2023-05-22T22:00:18.743Z,5.05
2023-05-22T22:02:45.292Z,4.40
2023-05-22T22:05:11.828Z,4.57
2023-05-22T22:07:38.352Z,3.35
2023-05-22T22:10:05.176Z,4.07
2023-05-22T22:12:31.556Z,3.50
2023-05-22T22:14:57.926Z,2.85
2023-05-22T22:17:24.290Z,2.58
2023-05-22T22:19:53.299Z,2.20
2023-05-22T22:22:21.135Z,2.03
2023-05-22T22:24:48.306Z,2.33
2023-05-22T22:27:15.409Z,2.47
2023-05-22T22:29:43.442Z,1.92
2023-05-22T22:32:09.965Z,2.50
2023-05-22T22:34:36.580Z,2.08
2023-05-22T22:37:02.943Z,2.30
2023-05-22T22:39:29.285Z,2.20
2023-05-22T22:41:55.636Z,2.50
2023-05-22T22:44:21.984Z,2.20
2023-05-22T22:46:48.361Z,1.70
2023-05-22T22:49:15.726Z,2.45
2023-05-22T22:51:42.823Z,2.47
2023-05-22T22:54:09.224Z,2.50
2023-05-22T22:56:35.788Z,2.55
2023-05-22T22:59:02.344Z,2.05
2023-05-22T23:01:28.736Z,2.03
2023-05-22T23:03:55.336Z,2.50
2023-05-22T23:06:23.631Z,2.65
2023-05-22T23:08:50.006Z,2.40
2023-05-22T23:11:16.694Z,2.30
2023-05-22T23:13:43.429Z,2.42
2023-05-22T23:16:09.930Z,2.50
2023-05-22T23:18:39.250Z,2.67
2023-05-22T23:21:05.686Z,2.50
2023-05-22T23:23:32.326Z,2.90
2023-05-22T23:25:59.218Z,2.38
2023-05-22T23:28:25.706Z,2.42
2023-05-22T23:30:52.758Z,2.90
2023-05-22T23:33:19.352Z,2.70
2023-05-22T23:35:45.788Z,2.78
2023-05-22T23:38:12.151Z,2.90
2023-05-22T23:40:38.531Z,2.63
2023-05-22T23:43:04.950Z,2.78
2023-05-22T23:45:31.349Z,2.92
2023-05-22T23:47:57.742Z,3.17
2023-05-22T23:50:24.131Z,3.30
2023-05-22T23:52:50.465Z,3.45
2023-05-22T23:55:17.012Z,2.80
2023-05-22T23:57:43.379Z,3.20
